PWSweather.com
Personal Weather Stations
Station Observations
MENWDWX1
Menstrie, ScotlandGB

MenstrieScotlandGB

Lat: 56.148322, Lon: -3.85483

Elevation: 62

Station Type: Davis Vantage Pro 2

High Low Average
Temperature 41.2°F5.1°F 36.3°F2.4°F 39.1°F3.9°F
Dew Point 33.0°F0.6°F 29.6°F-1.3°F 30.8°F-0.7°F
Winds 13.8 mph -22.2 mph - 2.3 mph 3.7 mph 8.4 mph 13.5 mph
Wind Gusts 20.7 mph33.3 mph 3.5 mph5.6 mph 11.9 mph19.2 mph
Humidity 77% 69% 72%
Pressure 30.16 in1021.30 in 29.99 in1015.60 in -
Precipitation 0.00 in0.00 in - -
Hour Temp Dew Point Humidity Winds Wind Gusts Pressure Precip Precip Rate Daily Precip Total
12:00 AM 38.7°F3.7°C 30.4°F-0.9°C 72% 9.2 mph E14.8 kmh E 11.5 mph18.5 kmh 30.02 in1016.6 mb - 0.00 in0.0 mm 0.00 in0.0 mm
12:05 AM 38.5°F3.6°C 30.3°F-0.9°C 72% 10.4 mph E16.7 kmh E 11.5 mph18.5 kmh 30.02 in1016.6 mb - 0.00 in0.0 mm 0.00 in0.0 mm
12:10 AM 38.4°F3.6°C 30.2°F-1.0°C 72% 9.2 mph E14.8 kmh E 12.7 mph20.4 kmh 30.03 in1016.9 mb - 0.00 in0.0 mm 0.00 in0.0 mm
12:15 AM 38.3°F3.5°C 31.1°F-0.5°C 75% 8.1 mph ESE13.0 kmh ESE 11.5 mph18.5 kmh 30.03 in1016.9 mb - 0.00 in0.0 mm 0.00 in0.0 mm
12:20 AM 38.2°F3.4°C 30.0°F-1.1°C 72% 8.1 mph E13.0 kmh E 10.4 mph16.7 kmh 30.03 in1016.9 mb - 0.00 in0.0 mm 0.00 in0.0 mm
12:25 AM 38.1°F3.4°C 29.9°F-1.2°C 72% 5.8 mph ESE9.3 kmh ESE 10.4 mph16.7 kmh 30.02 in1016.6 mb - 0.00 in0.0 mm 0.00 in0.0 mm
12:30 AM 38.0°F3.3°C 29.8°F-1.2°C 72% 5.8 mph E9.3 kmh E 12.7 mph20.4 kmh 30.02 in1016.6 mb - 0.00 in0.0 mm 0.00 in0.0 mm
12:35 AM 38.0°F3.3°C 29.8°F-1.2°C 72% 6.9 mph E11.1 kmh E 12.7 mph20.4 kmh 30.02 in1016.6 mb - 0.00 in0.0 mm 0.00 in0.0 mm
12:40 AM 38.1°F3.4°C 29.9°F-1.2°C 72% 8.1 mph E13.0 kmh E 15.0 mph24.1 kmh 30.02 in1016.6 mb - 0.00 in0.0 mm 0.00 in0.0 mm
12:45 AM 38.2°F3.4°C 29.6°F-1.3°C 71% 8.1 mph E13.0 kmh E 11.5 mph18.5 kmh 30.02 in1016.6 mb - 0.00 in0.0 mm 0.00 in0.0 mm
12:50 AM 38.2°F3.4°C 29.7°F-1.3°C 71% 8.1 mph E13.0 kmh E 11.5 mph18.5 kmh 30.02 in1016.6 mb - 0.00 in0.0 mm 0.00 in0.0 mm
12:55 AM 38.2°F3.4°C 29.6°F-1.3°C 71% 5.8 mph E9.3 kmh E 8.1 mph13.0 kmh 30.02 in1016.6 mb - 0.00 in0.0 mm 0.00 in0.0 mm
01:00 AM 38.1°F3.4°C 29.8°F-1.2°C 72% 6.9 mph E11.1 kmh E 10.4 mph16.7 kmh 30.02 in1016.6 mb - 0.00 in0.0 mm 0.00 in0.0 mm
01:05 AM 38.0°F3.3°C 29.8°F-1.2°C 72% 9.2 mph ESE14.8 kmh ESE 12.7 mph20.4 kmh 30.02 in1016.6 mb - 0.00 in0.0 mm 0.00 in0.0 mm
01:10 AM 38.0°F3.3°C 29.8°F-1.2°C 72% 5.8 mph ESE9.3 kmh ESE 6.9 mph11.1 kmh 30.03 in1016.9 mb - 0.00 in0.0 mm 0.00 in0.0 mm
01:15 AM 38.0°F3.3°C 29.8°F-1.2°C 72% 5.8 mph E9.3 kmh E 10.4 mph16.7 kmh 30.02 in1016.6 mb - 0.00 in0.0 mm 0.00 in0.0 mm
01:20 AM 38.1°F3.4°C 29.9°F-1.2°C 72% 9.2 mph E14.8 kmh E 12.7 mph20.4 kmh 30.02 in1016.6 mb - 0.00 in0.0 mm 0.00 in0.0 mm
01:25 AM 38.3°F3.5°C 29.7°F-1.3°C 71% 9.2 mph ESE14.8 kmh ESE 12.7 mph20.4 kmh 30.02 in1016.6 mb - 0.00 in0.0 mm 0.00 in0.0 mm
01:30 AM 38.2°F3.4°C 29.9°F-1.2°C 72% 6.9 mph E11.1 kmh E 10.4 mph16.7 kmh 30.02 in1016.6 mb - 0.00 in0.0 mm 0.00 in0.0 mm
01:35 AM 38.1°F3.4°C 29.8°F-1.2°C 72% 9.2 mph E14.8 kmh E 10.4 mph16.7 kmh 30.02 in1016.6 mb - 0.00 in0.0 mm 0.00 in0.0 mm
01:40 AM 38.0°F3.3°C 29.8°F-1.2°C 72% 10.4 mph E16.7 kmh E 12.7 mph20.4 kmh 30.02 in1016.6 mb - 0.00 in0.0 mm 0.00 in0.0 mm
01:45 AM 38.1°F3.4°C 29.9°F-1.2°C 72% 11.5 mph E18.5 kmh E 16.1 mph25.9 kmh 30.02 in1016.6 mb - 0.00 in0.0 mm 0.00 in0.0 mm
01:50 AM 38.3°F3.5°C 29.7°F-1.3°C 71% 9.2 mph E14.8 kmh E 13.8 mph22.2 kmh 30.02 in1016.6 mb - 0.00 in0.0 mm 0.00 in0.0 mm
01:55 AM 38.2°F3.4°C 29.6°F-1.3°C 71% 9.2 mph E14.8 kmh E 12.7 mph20.4 kmh 30.02 in1016.6 mb - 0.00 in0.0 mm 0.00 in0.0 mm
02:00 AM 38.0°F3.3°C 29.8°F-1.2°C 72% 11.5 mph E18.5 kmh E 17.3 mph27.8 kmh 30.02 in1016.6 mb - 0.00 in0.0 mm 0.00 in0.0 mm
02:05 AM 38.1°F3.4°C 29.9°F-1.2°C 72% 11.5 mph E18.5 kmh E 15.0 mph24.1 kmh 30.01 in1016.3 mb - 0.00 in0.0 mm 0.00 in0.0 mm
02:10 AM 38.2°F3.4°C 30.0°F-1.1°C 72% 9.2 mph E14.8 kmh E 11.5 mph18.5 kmh 30.01 in1016.3 mb - 0.00 in0.0 mm 0.00 in0.0 mm
02:15 AM 38.2°F3.4°C 29.9°F-1.2°C 72% 11.5 mph E18.5 kmh E 16.1 mph25.9 kmh 30.01 in1016.3 mb - 0.00 in0.0 mm 0.00 in0.0 mm
02:20 AM 38.2°F3.4°C 30.0°F-1.1°C 72% 11.5 mph E18.5 kmh E 16.1 mph25.9 kmh 30.01 in1016.3 mb - 0.00 in0.0 mm 0.00 in0.0 mm
02:25 AM 38.2°F3.4°C 30.0°F-1.1°C 72% 8.1 mph E13.0 kmh E 10.4 mph16.7 kmh 30.01 in1016.3 mb - 0.00 in0.0 mm 0.00 in0.0 mm
02:30 AM 38.1°F3.4°C 29.9°F-1.2°C 72% 9.2 mph E14.8 kmh E 12.7 mph20.4 kmh 30.01 in1016.3 mb - 0.00 in0.0 mm 0.00 in0.0 mm
02:35 AM 38.1°F3.4°C 29.9°F-1.2°C 72% 6.9 mph E11.1 kmh E 11.5 mph18.5 kmh 30.01 in1016.3 mb - 0.00 in0.0 mm 0.00 in0.0 mm
02:40 AM 38.1°F3.4°C 30.2°F-1.0°C 73% 10.4 mph ESE16.7 kmh ESE 13.8 mph22.2 kmh 30.02 in1016.6 mb - 0.00 in0.0 mm 0.00 in0.0 mm
02:45 AM 38.4°F3.6°C 30.1°F-1.1°C 72% 8.1 mph E13.0 kmh E 15.0 mph24.1 kmh 30.01 in1016.3 mb - 0.00 in0.0 mm 0.00 in0.0 mm
02:50 AM 38.6°F3.7°C 30.3°F-0.9°C 72% 8.1 mph ESE13.0 kmh ESE 11.5 mph18.5 kmh 30.02 in1016.6 mb - 0.00 in0.0 mm 0.00 in0.0 mm
02:55 AM 38.6°F3.7°C 30.0°F-1.1°C 71% 9.2 mph ESE14.8 kmh ESE 13.8 mph22.2 kmh 30.02 in1016.6 mb - 0.00 in0.0 mm 0.00 in0.0 mm
03:00 AM 38.6°F3.7°C 30.0°F-1.1°C 71% 6.9 mph ESE11.1 kmh ESE 12.7 mph20.4 kmh 30.01 in1016.3 mb - 0.00 in0.0 mm 0.00 in0.0 mm
03:05 AM 38.6°F3.7°C 30.4°F-0.9°C 72% 9.2 mph ESE14.8 kmh ESE 15.0 mph24.1 kmh 30.01 in1016.3 mb - 0.00 in0.0 mm 0.00 in0.0 mm
03:10 AM 38.6°F3.7°C 30.0°F-1.1°C 71% 9.2 mph E14.8 kmh E 13.8 mph22.2 kmh 30.01 in1016.3 mb - 0.00 in0.0 mm 0.00 in0.0 mm
03:15 AM 38.7°F3.7°C 30.1°F-1.1°C 71% 11.5 mph E18.5 kmh E 16.1 mph25.9 kmh 30.01 in1016.3 mb - 0.00 in0.0 mm 0.00 in0.0 mm
03:20 AM 38.7°F3.7°C 30.1°F-1.1°C 71% 10.4 mph ESE16.7 kmh ESE 15.0 mph24.1 kmh 30.01 in1016.3 mb - 0.00 in0.0 mm 0.00 in0.0 mm
03:25 AM 38.6°F3.7°C 30.4°F-0.9°C 72% 9.2 mph E14.8 kmh E 15.0 mph24.1 kmh 30.01 in1016.3 mb - 0.00 in0.0 mm 0.00 in0.0 mm
03:30 AM 38.7°F3.7°C 30.1°F-1.1°C 71% 9.2 mph E14.8 kmh E 11.5 mph18.5 kmh 30.01 in1016.3 mb - 0.00 in0.0 mm 0.00 in0.0 mm
03:35 AM 38.7°F3.7°C 30.1°F-1.1°C 71% 8.1 mph E13.0 kmh E 13.8 mph22.2 kmh 30.01 in1016.3 mb - 0.00 in0.0 mm 0.00 in0.0 mm
03:40 AM 38.8°F3.8°C 30.2°F-1.0°C 71% 13.8 mph E22.2 kmh E 15.0 mph24.1 kmh 30.01 in1016.3 mb - 0.00 in0.0 mm 0.00 in0.0 mm
03:45 AM 39.1°F3.9°C 30.1°F-1.1°C 70% 10.4 mph E16.7 kmh E 13.8 mph22.2 kmh 30.00 in1015.9 mb - 0.00 in0.0 mm 0.00 in0.0 mm
03:50 AM 39.2°F4.0°C 30.2°F-1.0°C 70% 10.4 mph E16.7 kmh E 17.3 mph27.8 kmh 30.01 in1016.3 mb - 0.00 in0.0 mm 0.00 in0.0 mm
03:55 AM 39.3°F4.1°C 30.3°F-0.9°C 70% 12.7 mph E20.4 kmh E 16.1 mph25.9 kmh 30.01 in1016.3 mb - 0.00 in0.0 mm 0.00 in0.0 mm
04:00 AM 39.5°F4.2°C 30.2°F-1.0°C 69% 9.2 mph E14.8 kmh E 13.8 mph22.2 kmh 30.01 in1016.3 mb - 0.00 in0.0 mm 0.00 in0.0 mm
04:05 AM 39.6°F4.2°C 30.3°F-0.9°C 69% 9.2 mph E14.8 kmh E 11.5 mph18.5 kmh 30.00 in1015.9 mb - 0.00 in0.0 mm 0.00 in0.0 mm
04:10 AM 39.6°F4.2°C 30.2°F-1.0°C 69% 10.4 mph ESE16.7 kmh ESE 15.0 mph24.1 kmh 30.01 in1016.3 mb - 0.00 in0.0 mm 0.00 in0.0 mm
04:15 AM 39.7°F4.3°C 30.4°F-0.9°C 69% 8.1 mph E13.0 kmh E 18.4 mph29.6 kmh 30.00 in1015.9 mb - 0.00 in0.0 mm 0.00 in0.0 mm
04:20 AM 39.8°F4.3°C 30.5°F-0.8°C 69% 11.5 mph ESE18.5 kmh ESE 12.7 mph20.4 kmh 30.00 in1015.9 mb - 0.00 in0.0 mm 0.00 in0.0 mm
04:25 AM 39.8°F4.3°C 30.5°F-0.8°C 69% 10.4 mph E16.7 kmh E 12.7 mph20.4 kmh 30.01 in1016.3 mb - 0.00 in0.0 mm 0.00 in0.0 mm
04:30 AM 39.7°F4.3°C 30.7°F-0.7°C 70% 10.4 mph E16.7 kmh E 16.1 mph25.9 kmh 30.00 in1015.9 mb - 0.00 in0.0 mm 0.00 in0.0 mm
04:35 AM 39.8°F4.3°C 30.5°F-0.8°C 69% 11.5 mph E18.5 kmh E 19.6 mph31.5 kmh 30.00 in1015.9 mb - 0.00 in0.0 mm 0.00 in0.0 mm
04:40 AM 39.8°F4.3°C 30.5°F-0.8°C 69% 9.2 mph E14.8 kmh E 20.7 mph33.3 kmh 30.00 in1015.9 mb - 0.00 in0.0 mm 0.00 in0.0 mm
04:45 AM 39.8°F4.3°C 30.5°F-0.8°C 69% 9.2 mph E14.8 kmh E 15.0 mph24.1 kmh 30.00 in1015.9 mb - 0.00 in0.0 mm 0.00 in0.0 mm
04:50 AM 39.7°F4.3°C 30.7°F-0.7°C 70% 13.8 mph E22.2 kmh E 18.4 mph29.6 kmh 30.00 in1015.9 mb - 0.00 in0.0 mm 0.00 in0.0 mm
04:55 AM 39.6°F4.2°C 30.6°F-0.8°C 70% 8.1 mph E13.0 kmh E 10.4 mph16.7 kmh 30.00 in1015.9 mb - 0.00 in0.0 mm 0.00 in0.0 mm
05:00 AM 39.5°F4.2°C 30.5°F-0.8°C 70% 9.2 mph E14.8 kmh E 12.7 mph20.4 kmh 30.00 in1015.9 mb - 0.00 in0.0 mm 0.00 in0.0 mm
05:05 AM 39.5°F4.2°C 30.5°F-0.8°C 70% 10.4 mph E16.7 kmh E 11.5 mph18.5 kmh 30.00 in1015.9 mb - 0.00 in0.0 mm 0.00 in0.0 mm
05:10 AM 39.5°F4.2°C 30.9°F-0.6°C 71% 11.5 mph E18.5 kmh E 16.1 mph25.9 kmh 30.00 in1015.9 mb - 0.00 in0.0 mm 0.00 in0.0 mm
05:15 AM 39.5°F4.2°C 30.9°F-0.6°C 71% 10.4 mph E16.7 kmh E 12.7 mph20.4 kmh 30.00 in1015.9 mb - 0.00 in0.0 mm 0.00 in0.0 mm
05:20 AM 39.4°F4.1°C 30.7°F-0.7°C 71% 10.4 mph E16.7 kmh E 11.5 mph18.5 kmh 30.00 in1015.9 mb - 0.00 in0.0 mm 0.00 in0.0 mm
05:25 AM 39.3°F4.1°C 30.7°F-0.7°C 71% 8.1 mph E13.0 kmh E 11.5 mph18.5 kmh 30.00 in1015.9 mb - 0.00 in0.0 mm 0.00 in0.0 mm
05:30 AM 39.4°F4.1°C 30.8°F-0.7°C 71% 9.2 mph ESE14.8 kmh ESE 11.5 mph18.5 kmh 30.00 in1015.9 mb - 0.00 in0.0 mm 0.00 in0.0 mm
05:35 AM 39.4°F4.1°C 30.8°F-0.7°C 71% 10.4 mph E16.7 kmh E 12.7 mph20.4 kmh 30.00 in1015.9 mb - 0.00 in0.0 mm 0.00 in0.0 mm
05:40 AM 39.5°F4.2°C 30.9°F-0.6°C 71% 12.7 mph ESE20.4 kmh ESE 15.0 mph24.1 kmh 30.00 in1015.9 mb - 0.00 in0.0 mm 0.00 in0.0 mm
05:45 AM 39.6°F4.2°C 30.6°F-0.8°C 70% 12.7 mph E20.4 kmh E 19.6 mph31.5 kmh 30.00 in1015.9 mb - 0.00 in0.0 mm 0.00 in0.0 mm
05:50 AM 39.7°F4.3°C 30.7°F-0.7°C 70% 11.5 mph E18.5 kmh E 16.1 mph25.9 kmh 30.00 in1015.9 mb - 0.00 in0.0 mm 0.00 in0.0 mm
05:55 AM 39.6°F4.2°C 31.0°F-0.6°C 71% 8.1 mph ESE13.0 kmh ESE 12.7 mph20.4 kmh 30.00 in1015.9 mb - 0.00 in0.0 mm 0.00 in0.0 mm
06:00 AM 39.5°F4.2°C 30.9°F-0.6°C 71% 9.2 mph ESE14.8 kmh ESE 15.0 mph24.1 kmh 29.99 in1015.6 mb - 0.00 in0.0 mm 0.00 in0.0 mm
06:05 AM 39.5°F4.2°C 30.9°F-0.6°C 71% 12.7 mph E20.4 kmh E 17.3 mph27.8 kmh 29.99 in1015.6 mb - 0.00 in0.0 mm 0.00 in0.0 mm
06:10 AM 39.5°F4.2°C 30.9°F-0.6°C 71% 11.5 mph E18.5 kmh E 16.1 mph25.9 kmh 29.99 in1015.6 mb - 0.00 in0.0 mm 0.00 in0.0 mm
06:15 AM 39.5°F4.2°C 30.9°F-0.6°C 71% 9.2 mph E14.8 kmh E 12.7 mph20.4 kmh 30.00 in1015.9 mb - 0.00 in0.0 mm 0.00 in0.0 mm
06:20 AM 39.6°F4.2°C 31.0°F-0.6°C 71% 9.2 mph E14.8 kmh E 11.5 mph18.5 kmh 30.00 in1015.9 mb - 0.00 in0.0 mm 0.00 in0.0 mm
06:25 AM 39.6°F4.2°C 31.0°F-0.6°C 71% 8.1 mph ESE13.0 kmh ESE 11.5 mph18.5 kmh 30.00 in1015.9 mb - 0.00 in0.0 mm 0.00 in0.0 mm
06:30 AM 39.7°F4.3°C 31.4°F-0.3°C 72% 8.1 mph E13.0 kmh E 10.4 mph16.7 kmh 30.01 in1016.3 mb - 0.00 in0.0 mm 0.00 in0.0 mm
06:35 AM 39.7°F4.3°C 31.4°F-0.3°C 72% 8.1 mph E13.0 kmh E 8.1 mph13.0 kmh 30.01 in1016.3 mb - 0.00 in0.0 mm 0.00 in0.0 mm
06:40 AM 39.6°F4.2°C 31.3°F-0.4°C 72% 5.8 mph E9.3 kmh E 8.1 mph13.0 kmh 30.01 in1016.3 mb - 0.00 in0.0 mm 0.00 in0.0 mm
06:45 AM 39.5°F4.2°C 31.3°F-0.4°C 72% 6.9 mph E11.1 kmh E 10.4 mph16.7 kmh 30.01 in1016.3 mb - 0.00 in0.0 mm 0.00 in0.0 mm
06:50 AM 39.5°F4.2°C 31.2°F-0.4°C 72% 9.2 mph E14.8 kmh E 12.7 mph20.4 kmh 30.01 in1016.3 mb - 0.00 in0.0 mm 0.00 in0.0 mm
06:55 AM 39.4°F4.1°C 31.1°F-0.5°C 72% 6.9 mph E11.1 kmh E 10.4 mph16.7 kmh 30.01 in1016.3 mb - 0.00 in0.0 mm 0.00 in0.0 mm
07:00 AM 39.5°F4.2°C 31.2°F-0.4°C 72% 8.1 mph E13.0 kmh E 10.4 mph16.7 kmh 30.01 in1016.3 mb - 0.00 in0.0 mm 0.00 in0.0 mm
07:05 AM 39.5°F4.2°C 31.2°F-0.4°C 72% 9.2 mph E14.8 kmh E 11.5 mph18.5 kmh 30.01 in1016.3 mb - 0.00 in0.0 mm 0.00 in0.0 mm
07:10 AM 39.5°F4.2°C 31.6°F-0.2°C 73% 9.2 mph E14.8 kmh E 11.5 mph18.5 kmh 30.02 in1016.6 mb - 0.00 in0.0 mm 0.00 in0.0 mm
07:15 AM 39.6°F4.2°C 31.6°F-0.2°C 73% 9.2 mph E14.8 kmh E 11.5 mph18.5 kmh 30.02 in1016.6 mb - 0.00 in0.0 mm 0.00 in0.0 mm
07:20 AM 39.5°F4.2°C 31.6°F-0.2°C 73% 8.1 mph E13.0 kmh E 9.2 mph14.8 kmh 30.02 in1016.6 mb - 0.00 in0.0 mm 0.00 in0.0 mm
07:25 AM 39.5°F4.2°C 31.5°F-0.3°C 73% 8.1 mph E13.0 kmh E 11.5 mph18.5 kmh 30.02 in1016.6 mb - 0.00 in0.0 mm 0.00 in0.0 mm
07:30 AM 39.5°F4.2°C 31.6°F-0.2°C 73% 6.9 mph ESE11.1 kmh ESE 11.5 mph18.5 kmh 30.02 in1016.6 mb - 0.00 in0.0 mm 0.00 in0.0 mm
07:35 AM 39.6°F4.2°C 31.7°F-0.2°C 73% 8.1 mph SE13.0 kmh SE 11.5 mph18.5 kmh 30.02 in1016.6 mb - 0.00 in0.0 mm 0.00 in0.0 mm
07:40 AM 39.8°F4.3°C 31.8°F-0.1°C 73% 6.9 mph ESE11.1 kmh ESE 10.4 mph16.7 kmh 30.02 in1016.6 mb - 0.00 in0.0 mm 0.00 in0.0 mm
07:45 AM 39.8°F4.3°C 31.8°F-0.1°C 73% 9.2 mph SE14.8 kmh SE 11.5 mph18.5 kmh 30.02 in1016.6 mb - 0.00 in0.0 mm 0.00 in0.0 mm
07:50 AM 40.0°F4.4°C 31.7°F-0.2°C 72% 8.1 mph ESE13.0 kmh ESE 12.7 mph20.4 kmh 30.02 in1016.6 mb - 0.00 in0.0 mm 0.00 in0.0 mm
07:55 AM 40.0°F4.4°C 31.7°F-0.2°C 72% 6.9 mph ESE11.1 kmh ESE 8.1 mph13.0 kmh 30.02 in1016.6 mb - 0.00 in0.0 mm 0.00 in0.0 mm
08:00 AM 40.0°F4.4°C 31.7°F-0.2°C 72% 5.8 mph SSE9.3 kmh SSE 6.9 mph11.1 kmh 30.02 in1016.6 mb - 0.00 in0.0 mm 0.00 in0.0 mm
08:05 AM 40.0°F4.4°C 31.7°F-0.2°C 72% 5.8 mph ESE9.3 kmh ESE 8.1 mph13.0 kmh 30.02 in1016.6 mb - 0.00 in0.0 mm 0.00 in0.0 mm
08:10 AM 39.9°F4.4°C 31.6°F-0.2°C 72% 9.2 mph SE14.8 kmh SE 13.8 mph22.2 kmh 30.02 in1016.6 mb - 0.00 in0.0 mm 0.00 in0.0 mm
08:15 AM 40.0°F4.4°C 31.3°F-0.4°C 71% 5.8 mph SE9.3 kmh SE 11.5 mph18.5 kmh 30.03 in1016.9 mb - 0.00 in0.0 mm 0.00 in0.0 mm
08:20 AM 40.0°F4.4°C 31.3°F-0.4°C 71% 4.6 mph SE7.4 kmh SE 11.5 mph18.5 kmh 30.03 in1016.9 mb - 0.00 in0.0 mm 0.00 in0.0 mm
08:25 AM 39.8°F4.3°C 30.8°F-0.7°C 70% 4.6 mph SE7.4 kmh SE 12.7 mph20.4 kmh 30.03 in1016.9 mb - 0.00 in0.0 mm 0.00 in0.0 mm
08:30 AM 39.8°F4.3°C 30.8°F-0.7°C 70% 8.1 mph SE13.0 kmh SE 13.8 mph22.2 kmh 30.03 in1016.9 mb - 0.00 in0.0 mm 0.00 in0.0 mm
08:35 AM 39.7°F4.3°C 30.7°F-0.7°C 70% 5.8 mph SE9.3 kmh SE 6.9 mph11.1 kmh 30.04 in1017.3 mb - 0.00 in0.0 mm 0.00 in0.0 mm
08:40 AM 39.6°F4.2°C 30.6°F-0.8°C 70% 11.5 mph SE18.5 kmh SE 16.1 mph25.9 kmh 30.04 in1017.3 mb - 0.00 in0.0 mm 0.00 in0.0 mm
08:45 AM 39.6°F4.2°C 30.7°F-0.7°C 70% 9.2 mph SE14.8 kmh SE 12.7 mph20.4 kmh 30.04 in1017.3 mb - 0.00 in0.0 mm 0.00 in0.0 mm
08:50 AM 39.6°F4.2°C 30.6°F-0.8°C 70% 5.8 mph ESE9.3 kmh ESE 12.7 mph20.4 kmh 30.04 in1017.3 mb - 0.00 in0.0 mm 0.00 in0.0 mm
08:55 AM 39.5°F4.2°C 30.5°F-0.8°C 70% 6.9 mph ESE11.1 kmh ESE 11.5 mph18.5 kmh 30.04 in1017.3 mb - 0.00 in0.0 mm 0.00 in0.0 mm
09:00 AM 39.4°F4.1°C 30.4°F-0.9°C 70% 6.9 mph SE11.1 kmh SE 10.4 mph16.7 kmh 30.04 in1017.3 mb - 0.00 in0.0 mm 0.00 in0.0 mm
09:05 AM 39.3°F4.1°C 30.7°F-0.7°C 71% 6.9 mph E11.1 kmh E 9.2 mph14.8 kmh 30.04 in1017.3 mb - 0.00 in0.0 mm 0.00 in0.0 mm
09:10 AM 39.2°F4.0°C 30.6°F-0.8°C 71% 5.8 mph ESE9.3 kmh ESE 8.1 mph13.0 kmh 30.04 in1017.3 mb - 0.00 in0.0 mm 0.00 in0.0 mm
09:15 AM 39.1°F3.9°C 30.5°F-0.8°C 71% 6.9 mph ESE11.1 kmh ESE 11.5 mph18.5 kmh 30.04 in1017.3 mb - 0.00 in0.0 mm 0.00 in0.0 mm
09:20 AM 39.1°F3.9°C 30.5°F-0.8°C 71% 6.9 mph E11.1 kmh E 10.4 mph16.7 kmh 30.04 in1017.3 mb - 0.00 in0.0 mm 0.00 in0.0 mm
09:25 AM 39.0°F3.9°C 30.4°F-0.9°C 71% 8.1 mph ESE13.0 kmh ESE 10.4 mph16.7 kmh 30.04 in1017.3 mb - 0.00 in0.0 mm 0.00 in0.0 mm
09:30 AM 39.1°F3.9°C 30.5°F-0.8°C 71% 8.1 mph ESE13.0 kmh ESE 12.7 mph20.4 kmh 30.04 in1017.3 mb - 0.00 in0.0 mm 0.00 in0.0 mm
09:35 AM 39.1°F3.9°C 30.5°F-0.8°C 71% 8.1 mph ESE13.0 kmh ESE 12.7 mph20.4 kmh 30.04 in1017.3 mb - 0.00 in0.0 mm 0.00 in0.0 mm
09:40 AM 39.2°F4.0°C 30.6°F-0.8°C 71% 8.1 mph E13.0 kmh E 11.5 mph18.5 kmh 30.04 in1017.3 mb - 0.00 in0.0 mm 0.00 in0.0 mm
09:45 AM 39.2°F4.0°C 30.6°F-0.8°C 71% 11.5 mph ESE18.5 kmh ESE 17.3 mph27.8 kmh 30.04 in1017.3 mb - 0.00 in0.0 mm 0.00 in0.0 mm
09:50 AM 39.2°F4.0°C 30.6°F-0.8°C 71% 9.2 mph ESE14.8 kmh ESE 12.7 mph20.4 kmh 30.04 in1017.3 mb - 0.00 in0.0 mm 0.00 in0.0 mm
09:55 AM 39.2°F4.0°C 30.6°F-0.8°C 71% 8.1 mph ESE13.0 kmh ESE 11.5 mph18.5 kmh 30.04 in1017.3 mb - 0.00 in0.0 mm 0.00 in0.0 mm
10:00 AM 39.2°F4.0°C 30.6°F-0.8°C 71% 6.9 mph ESE11.1 kmh ESE 8.1 mph13.0 kmh 30.04 in1017.3 mb - 0.00 in0.0 mm 0.00 in0.0 mm
10:05 AM 39.2°F4.0°C 30.5°F-0.8°C 71% 5.8 mph E9.3 kmh E 13.8 mph22.2 kmh 30.04 in1017.3 mb - 0.00 in0.0 mm 0.00 in0.0 mm
10:10 AM 39.2°F4.0°C 30.6°F-0.8°C 71% 8.1 mph ESE13.0 kmh ESE 12.7 mph20.4 kmh 30.04 in1017.3 mb - 0.00 in0.0 mm 0.00 in0.0 mm
10:15 AM 39.4°F4.1°C 30.8°F-0.7°C 71% 6.9 mph ESE11.1 kmh ESE 11.5 mph18.5 kmh 30.04 in1017.3 mb - 0.00 in0.0 mm 0.00 in0.0 mm
10:20 AM 39.4°F4.1°C 30.8°F-0.7°C 71% 6.9 mph ESE11.1 kmh ESE 13.8 mph22.2 kmh 30.04 in1017.3 mb - 0.00 in0.0 mm 0.00 in0.0 mm
10:25 AM 39.3°F4.1°C 30.7°F-0.7°C 71% 6.9 mph E11.1 kmh E 11.5 mph18.5 kmh 30.04 in1017.3 mb - 0.00 in0.0 mm 0.00 in0.0 mm
10:30 AM 39.3°F4.1°C 30.7°F-0.7°C 71% 8.1 mph ESE13.0 kmh ESE 12.7 mph20.4 kmh 30.04 in1017.3 mb - 0.00 in0.0 mm 0.00 in0.0 mm
10:35 AM 39.3°F4.1°C 30.7°F-0.7°C 71% 8.1 mph ESE13.0 kmh ESE 11.5 mph18.5 kmh 30.04 in1017.3 mb - 0.00 in0.0 mm 0.00 in0.0 mm
10:40 AM 39.3°F4.1°C 30.7°F-0.7°C 71% 8.1 mph ESE13.0 kmh ESE 12.7 mph20.4 kmh 30.04 in1017.3 mb - 0.00 in0.0 mm 0.00 in0.0 mm
10:45 AM 39.4°F4.1°C 30.7°F-0.7°C 71% 9.2 mph E14.8 kmh E 13.8 mph22.2 kmh 30.04 in1017.3 mb - 0.00 in0.0 mm 0.00 in0.0 mm
10:50 AM 39.4°F4.1°C 30.8°F-0.7°C 71% 9.2 mph ESE14.8 kmh ESE 12.7 mph20.4 kmh 30.05 in1017.6 mb - 0.00 in0.0 mm 0.00 in0.0 mm
10:55 AM 39.5°F4.2°C 30.9°F-0.6°C 71% 6.9 mph ESE11.1 kmh ESE 12.7 mph20.4 kmh 30.04 in1017.3 mb - 0.00 in0.0 mm 0.00 in0.0 mm
11:00 AM 39.4°F4.1°C 30.7°F-0.7°C 71% 8.1 mph E13.0 kmh E 13.8 mph22.2 kmh 30.04 in1017.3 mb - 0.00 in0.0 mm 0.00 in0.0 mm
11:05 AM 39.4°F4.1°C 30.7°F-0.7°C 71% 11.5 mph E18.5 kmh E 15.0 mph24.1 kmh 30.05 in1017.6 mb - 0.00 in0.0 mm 0.00 in0.0 mm
11:10 AM 39.4°F4.1°C 30.8°F-0.7°C 71% 9.2 mph E14.8 kmh E 12.7 mph20.4 kmh 30.04 in1017.3 mb - 0.00 in0.0 mm 0.00 in0.0 mm
11:15 AM 39.4°F4.1°C 30.8°F-0.7°C 71% 11.5 mph E18.5 kmh E 17.3 mph27.8 kmh 30.04 in1017.3 mb - 0.00 in0.0 mm 0.00 in0.0 mm
11:20 AM 39.5°F4.2°C 30.9°F-0.6°C 71% 8.1 mph E13.0 kmh E 11.5 mph18.5 kmh 30.05 in1017.6 mb - 0.00 in0.0 mm 0.00 in0.0 mm
11:25 AM 39.5°F4.2°C 30.9°F-0.6°C 71% 9.2 mph ESE14.8 kmh ESE 11.5 mph18.5 kmh 30.04 in1017.3 mb - 0.00 in0.0 mm 0.00 in0.0 mm
11:30 AM 39.6°F4.2°C 31.0°F-0.6°C 71% 9.2 mph ESE14.8 kmh ESE 13.8 mph22.2 kmh 30.04 in1017.3 mb - 0.00 in0.0 mm 0.00 in0.0 mm
11:35 AM 39.7°F4.3°C 30.7°F-0.7°C 70% 10.4 mph E16.7 kmh E 15.0 mph24.1 kmh 30.04 in1017.3 mb - 0.00 in0.0 mm 0.00 in0.0 mm
11:40 AM 39.7°F4.3°C 30.7°F-0.7°C 70% 9.2 mph ESE14.8 kmh ESE 11.5 mph18.5 kmh 30.04 in1017.3 mb - 0.00 in0.0 mm 0.00 in0.0 mm
11:45 AM 39.7°F4.3°C 30.7°F-0.7°C 70% 10.4 mph ESE16.7 kmh ESE 12.7 mph20.4 kmh 30.04 in1017.3 mb - 0.00 in0.0 mm 0.00 in0.0 mm
11:50 AM 39.7°F4.3°C 30.7°F-0.7°C 70% 6.9 mph SE11.1 kmh SE 11.5 mph18.5 kmh 30.04 in1017.3 mb - 0.00 in0.0 mm 0.00 in0.0 mm
11:55 AM 39.7°F4.3°C 31.1°F-0.5°C 71% 9.2 mph ESE14.8 kmh ESE 11.5 mph18.5 kmh 30.04 in1017.3 mb - 0.00 in0.0 mm 0.00 in0.0 mm
12:00 PM 39.7°F4.3°C 31.0°F-0.6°C 71% 10.4 mph E16.7 kmh E 13.8 mph22.2 kmh 30.04 in1017.3 mb - 0.00 in0.0 mm 0.00 in0.0 mm
12:05 PM 39.7°F4.3°C 31.1°F-0.5°C 71% 8.1 mph ESE13.0 kmh ESE 11.5 mph18.5 kmh 30.04 in1017.3 mb - 0.00 in0.0 mm 0.00 in0.0 mm
12:10 PM 39.8°F4.3°C 30.8°F-0.7°C 70% 10.4 mph E16.7 kmh E 12.7 mph20.4 kmh 30.04 in1017.3 mb - 0.00 in0.0 mm 0.00 in0.0 mm
12:15 PM 40.0°F4.4°C 31.0°F-0.6°C 70% 10.4 mph E16.7 kmh E 12.7 mph20.4 kmh 30.04 in1017.3 mb - 0.00 in0.0 mm 0.00 in0.0 mm
12:20 PM 40.0°F4.4°C 31.0°F-0.6°C 70% 10.4 mph ESE16.7 kmh ESE 12.7 mph20.4 kmh 30.04 in1017.3 mb - 0.00 in0.0 mm 0.00 in0.0 mm
12:25 PM 40.0°F4.4°C 31.0°F-0.6°C 70% 11.5 mph E18.5 kmh E 17.3 mph27.8 kmh 30.04 in1017.3 mb - 0.00 in0.0 mm 0.00 in0.0 mm
12:30 PM 40.1°F4.5°C 31.4°F-0.3°C 71% 9.2 mph E14.8 kmh E 13.8 mph22.2 kmh 30.04 in1017.3 mb - 0.00 in0.0 mm 0.00 in0.0 mm
12:35 PM 40.2°F4.6°C 31.2°F-0.4°C 70% 9.2 mph ESE14.8 kmh ESE 13.8 mph22.2 kmh 30.04 in1017.3 mb - 0.00 in0.0 mm 0.00 in0.0 mm
12:40 PM 40.5°F4.7°C 31.5°F-0.3°C 70% 10.4 mph E16.7 kmh E 15.0 mph24.1 kmh 30.04 in1017.3 mb - 0.00 in0.0 mm 0.00 in0.0 mm
12:45 PM 40.7°F4.8°C 31.7°F-0.2°C 70% 9.2 mph E14.8 kmh E 11.5 mph18.5 kmh 30.04 in1017.3 mb - 0.00 in0.0 mm 0.00 in0.0 mm
12:50 PM 40.7°F4.8°C 31.3°F-0.4°C 69% 10.4 mph E16.7 kmh E 15.0 mph24.1 kmh 30.04 in1017.3 mb - 0.00 in0.0 mm 0.00 in0.0 mm
12:55 PM 40.8°F4.9°C 31.8°F-0.1°C 70% 10.4 mph ESE16.7 kmh ESE 11.5 mph18.5 kmh 30.04 in1017.3 mb - 0.00 in0.0 mm 0.00 in0.0 mm
01:00 PM 41.0°F5.0°C 32.3°F0.2°C 71% 9.2 mph ESE14.8 kmh ESE 11.5 mph18.5 kmh 30.04 in1017.3 mb - 0.00 in0.0 mm 0.00 in0.0 mm
01:05 PM 41.1°F5.1°C 31.7°F-0.2°C 69% 9.2 mph E14.8 kmh E 15.0 mph24.1 kmh 30.03 in1016.9 mb - 0.00 in0.0 mm 0.00 in0.0 mm
01:10 PM 41.1°F5.1°C 31.7°F-0.2°C 69% 8.1 mph E13.0 kmh E 15.0 mph24.1 kmh 30.03 in1016.9 mb - 0.00 in0.0 mm 0.00 in0.0 mm
01:15 PM 41.2°F5.1°C 31.8°F-0.1°C 69% 9.2 mph E14.8 kmh E 10.4 mph16.7 kmh 30.04 in1017.3 mb - 0.00 in0.0 mm 0.00 in0.0 mm
01:20 PM 41.2°F5.1°C 31.8°F-0.1°C 69% 10.4 mph E16.7 kmh E 12.7 mph20.4 kmh 30.04 in1017.3 mb - 0.00 in0.0 mm 0.00 in0.0 mm
01:25 PM 41.2°F5.1°C 31.8°F-0.1°C 69% 9.2 mph E14.8 kmh E 11.5 mph18.5 kmh 30.04 in1017.3 mb - 0.00 in0.0 mm 0.00 in0.0 mm
01:30 PM 41.1°F5.1°C 31.7°F-0.2°C 69% 6.9 mph E11.1 kmh E 11.5 mph18.5 kmh 30.04 in1017.3 mb - 0.00 in0.0 mm 0.00 in0.0 mm
01:35 PM 41.0°F5.0°C 31.6°F-0.2°C 69% 8.1 mph E13.0 kmh E 9.2 mph14.8 kmh 30.04 in1017.3 mb - 0.00 in0.0 mm 0.00 in0.0 mm
01:40 PM 41.0°F5.0°C 33.0°F0.6°C 73% 8.1 mph E13.0 kmh E 11.5 mph18.5 kmh 30.04 in1017.3 mb - 0.00 in0.0 mm 0.00 in0.0 mm
01:45 PM 41.0°F5.0°C 31.6°F-0.2°C 69% 6.9 mph ESE11.1 kmh ESE 8.1 mph13.0 kmh 30.04 in1017.3 mb - 0.00 in0.0 mm 0.00 in0.0 mm
01:50 PM 41.0°F5.0°C 31.6°F-0.2°C 69% 8.1 mph E13.0 kmh E 15.0 mph24.1 kmh 30.04 in1017.3 mb - 0.00 in0.0 mm 0.00 in0.0 mm
01:55 PM 40.9°F4.9°C 31.6°F-0.2°C 69% 6.9 mph E11.1 kmh E 10.4 mph16.7 kmh 30.04 in1017.3 mb - 0.00 in0.0 mm 0.00 in0.0 mm
02:00 PM 40.9°F4.9°C 31.5°F-0.3°C 69% 9.2 mph E14.8 kmh E 11.5 mph18.5 kmh 30.04 in1017.3 mb - 0.00 in0.0 mm 0.00 in0.0 mm
02:05 PM 40.9°F4.9°C 31.5°F-0.3°C 69% 9.2 mph E14.8 kmh E 11.5 mph18.5 kmh 30.04 in1017.3 mb - 0.00 in0.0 mm 0.00 in0.0 mm
02:10 PM 40.9°F4.9°C 31.5°F-0.3°C 69% 10.4 mph E16.7 kmh E 15.0 mph24.1 kmh 30.04 in1017.3 mb - 0.00 in0.0 mm 0.00 in0.0 mm
02:15 PM 40.8°F4.9°C 31.4°F-0.3°C 69% 9.2 mph E14.8 kmh E 12.7 mph20.4 kmh 30.04 in1017.3 mb - 0.00 in0.0 mm 0.00 in0.0 mm
02:20 PM 40.7°F4.8°C 31.3°F-0.4°C 69% 10.4 mph E16.7 kmh E 16.1 mph25.9 kmh 30.04 in1017.3 mb - 0.00 in0.0 mm 0.00 in0.0 mm
02:25 PM 40.6°F4.8°C 31.5°F-0.3°C 70% 9.2 mph E14.8 kmh E 12.7 mph20.4 kmh 30.04 in1017.3 mb - 0.00 in0.0 mm 0.00 in0.0 mm
02:30 PM 40.5°F4.7°C 31.5°F-0.3°C 70% 10.4 mph E16.7 kmh E 12.7 mph20.4 kmh 30.04 in1017.3 mb - 0.00 in0.0 mm 0.00 in0.0 mm
02:35 PM 40.5°F4.7°C 31.4°F-0.3°C 70% 10.4 mph ESE16.7 kmh ESE 13.8 mph22.2 kmh 30.04 in1017.3 mb - 0.00 in0.0 mm 0.00 in0.0 mm
02:40 PM 40.4°F4.7°C 31.4°F-0.3°C 70% 12.7 mph ESE20.4 kmh ESE 17.3 mph27.8 kmh 30.03 in1016.9 mb - 0.00 in0.0 mm 0.00 in0.0 mm
02:45 PM 40.3°F4.6°C 31.3°F-0.4°C 70% 10.4 mph ESE16.7 kmh ESE 15.0 mph24.1 kmh 30.03 in1016.9 mb - 0.00 in0.0 mm 0.00 in0.0 mm
02:50 PM 40.3°F4.6°C 31.3°F-0.4°C 70% 9.2 mph ESE14.8 kmh ESE 11.5 mph18.5 kmh 30.04 in1017.3 mb - 0.00 in0.0 mm 0.00 in0.0 mm
02:55 PM 40.2°F4.6°C 31.2°F-0.4°C 70% 11.5 mph E18.5 kmh E 16.1 mph25.9 kmh 30.04 in1017.3 mb - 0.00 in0.0 mm 0.00 in0.0 mm
03:00 PM 40.1°F4.5°C 31.1°F-0.5°C 70% 9.2 mph E14.8 kmh E 12.7 mph20.4 kmh 30.05 in1017.6 mb - 0.00 in0.0 mm 0.00 in0.0 mm
03:05 PM 40.0°F4.4°C 31.3°F-0.4°C 71% 8.1 mph E13.0 kmh E 10.4 mph16.7 kmh 30.05 in1017.6 mb - 0.00 in0.0 mm 0.00 in0.0 mm
03:10 PM 39.9°F4.4°C 31.3°F-0.4°C 71% 8.1 mph E13.0 kmh E 10.4 mph16.7 kmh 30.05 in1017.6 mb - 0.00 in0.0 mm 0.00 in0.0 mm
03:15 PM 39.9°F4.4°C 30.9°F-0.6°C 70% 9.2 mph E14.8 kmh E 12.7 mph20.4 kmh 30.05 in1017.6 mb - 0.00 in0.0 mm 0.00 in0.0 mm
03:20 PM 39.9°F4.4°C 30.9°F-0.6°C 70% 10.4 mph E16.7 kmh E 15.0 mph24.1 kmh 30.05 in1017.6 mb - 0.00 in0.0 mm 0.00 in0.0 mm
03:25 PM 40.0°F4.4°C 31.0°F-0.6°C 70% 10.4 mph E16.7 kmh E 16.1 mph25.9 kmh 30.05 in1017.6 mb - 0.00 in0.0 mm 0.00 in0.0 mm
03:30 PM 40.0°F4.4°C 31.0°F-0.6°C 70% 11.5 mph E18.5 kmh E 13.8 mph22.2 kmh 30.05 in1017.6 mb - 0.00 in0.0 mm 0.00 in0.0 mm
03:35 PM 40.0°F4.4°C 30.6°F-0.8°C 69% 9.2 mph E14.8 kmh E 11.5 mph18.5 kmh 30.06 in1017.9 mb - 0.00 in0.0 mm 0.00 in0.0 mm
03:40 PM 40.0°F4.4°C 30.6°F-0.8°C 69% 9.2 mph E14.8 kmh E 12.7 mph20.4 kmh 30.06 in1017.9 mb - 0.00 in0.0 mm 0.00 in0.0 mm
03:45 PM 39.9°F4.4°C 30.6°F-0.8°C 69% 8.1 mph E13.0 kmh E 15.0 mph24.1 kmh 30.07 in1018.3 mb - 0.00 in0.0 mm 0.00 in0.0 mm
03:50 PM 39.8°F4.3°C 30.8°F-0.7°C 70% 6.9 mph ESE11.1 kmh ESE 9.2 mph14.8 kmh 30.07 in1018.3 mb - 0.00 in0.0 mm 0.00 in0.0 mm
03:55 PM 39.6°F4.2°C 30.6°F-0.8°C 70% 6.9 mph ESE11.1 kmh ESE 11.5 mph18.5 kmh 30.07 in1018.3 mb - 0.00 in0.0 mm 0.00 in0.0 mm
04:00 PM 39.3°F4.1°C 30.7°F-0.7°C 71% 6.9 mph E11.1 kmh E 11.5 mph18.5 kmh 30.07 in1018.3 mb - 0.00 in0.0 mm 0.00 in0.0 mm
04:05 PM 39.2°F4.0°C 30.6°F-0.8°C 71% 5.8 mph ESE9.3 kmh ESE 8.1 mph13.0 kmh 30.07 in1018.3 mb - 0.00 in0.0 mm 0.00 in0.0 mm
04:10 PM 39.2°F4.0°C 30.6°F-0.8°C 71% 11.5 mph E18.5 kmh E 11.5 mph18.5 kmh 30.08 in1018.6 mb - 0.00 in0.0 mm 0.00 in0.0 mm
04:15 PM 39.5°F4.2°C 30.9°F-0.6°C 71% 6.9 mph E11.1 kmh E 10.4 mph16.7 kmh 30.08 in1018.6 mb - 0.00 in0.0 mm 0.00 in0.0 mm
04:20 PM 39.6°F4.2°C 30.7°F-0.7°C 70% 10.4 mph ESE16.7 kmh ESE 13.8 mph22.2 kmh 30.08 in1018.6 mb - 0.00 in0.0 mm 0.00 in0.0 mm
04:25 PM 39.7°F4.3°C 30.7°F-0.7°C 70% 8.1 mph SE13.0 kmh SE 11.5 mph18.5 kmh 30.08 in1018.6 mb - 0.00 in0.0 mm 0.00 in0.0 mm
04:30 PM 39.6°F4.2°C 31.0°F-0.6°C 71% 9.2 mph E14.8 kmh E 13.8 mph22.2 kmh 30.09 in1019.0 mb - 0.00 in0.0 mm 0.00 in0.0 mm
04:35 PM 39.7°F4.3°C 31.1°F-0.5°C 71% 8.1 mph E13.0 kmh E 11.5 mph18.5 kmh 30.09 in1019.0 mb - 0.00 in0.0 mm 0.00 in0.0 mm
04:40 PM 39.7°F4.3°C 31.0°F-0.6°C 71% 5.8 mph ESE9.3 kmh ESE 9.2 mph14.8 kmh 30.09 in1019.0 mb - 0.00 in0.0 mm 0.00 in0.0 mm
04:45 PM 39.6°F4.2°C 31.0°F-0.6°C 71% 9.2 mph ESE14.8 kmh ESE 13.8 mph22.2 kmh 30.09 in1019.0 mb - 0.00 in0.0 mm 0.00 in0.0 mm
04:50 PM 39.5°F4.2°C 30.9°F-0.6°C 71% 6.9 mph ESE11.1 kmh ESE 8.1 mph13.0 kmh 30.09 in1019.0 mb - 0.00 in0.0 mm 0.00 in0.0 mm
04:55 PM 39.3°F4.1°C 31.0°F-0.6°C 72% 8.1 mph ESE13.0 kmh ESE 11.5 mph18.5 kmh 30.09 in1019.0 mb - 0.00 in0.0 mm 0.00 in0.0 mm
05:00 PM 39.3°F4.1°C 31.0°F-0.6°C 72% 8.1 mph ESE13.0 kmh ESE 11.5 mph18.5 kmh 30.09 in1019.0 mb - 0.00 in0.0 mm 0.00 in0.0 mm
05:05 PM 39.2°F4.0°C 31.9°F-0.1°C 75% 8.1 mph ESE13.0 kmh ESE 11.5 mph18.5 kmh 30.09 in1019.0 mb - 0.00 in0.0 mm 0.00 in0.0 mm
05:10 PM 39.1°F3.9°C 30.9°F-0.6°C 72% 8.1 mph ESE13.0 kmh ESE 11.5 mph18.5 kmh 30.09 in1019.0 mb - 0.00 in0.0 mm 0.00 in0.0 mm
05:15 PM 39.0°F3.9°C 30.7°F-0.7°C 72% 5.8 mph ESE9.3 kmh ESE 9.2 mph14.8 kmh 30.09 in1019.0 mb - 0.00 in0.0 mm 0.00 in0.0 mm
05:20 PM 38.7°F3.7°C 30.8°F-0.7°C 73% 8.1 mph E13.0 kmh E 9.2 mph14.8 kmh 30.09 in1019.0 mb - 0.00 in0.0 mm 0.00 in0.0 mm
05:25 PM 38.5°F3.6°C 30.6°F-0.8°C 73% 8.1 mph E13.0 kmh E 11.5 mph18.5 kmh 30.09 in1019.0 mb - 0.00 in0.0 mm 0.00 in0.0 mm
05:30 PM 38.4°F3.6°C 30.8°F-0.7°C 74% 6.9 mph E11.1 kmh E 9.2 mph14.8 kmh 30.10 in1019.3 mb - 0.00 in0.0 mm 0.00 in0.0 mm
05:35 PM 38.4°F3.6°C 30.8°F-0.7°C 74% 6.9 mph E11.1 kmh E 6.9 mph11.1 kmh 30.10 in1019.3 mb - 0.00 in0.0 mm 0.00 in0.0 mm
05:40 PM 38.6°F3.7°C 31.0°F-0.6°C 74% 8.1 mph E13.0 kmh E 10.4 mph16.7 kmh 30.10 in1019.3 mb - 0.00 in0.0 mm 0.00 in0.0 mm
05:45 PM 38.8°F3.8°C 30.9°F-0.6°C 73% 4.6 mph E7.4 kmh E 8.1 mph13.0 kmh 30.10 in1019.3 mb - 0.00 in0.0 mm 0.00 in0.0 mm
05:50 PM 38.7°F3.7°C 30.8°F-0.7°C 73% 8.1 mph E13.0 kmh E 11.5 mph18.5 kmh 30.10 in1019.3 mb - 0.00 in0.0 mm 0.00 in0.0 mm
05:55 PM 38.7°F3.7°C 30.8°F-0.7°C 73% 9.2 mph E14.8 kmh E 16.1 mph25.9 kmh 30.10 in1019.3 mb - 0.00 in0.0 mm 0.00 in0.0 mm
06:00 PM 38.9°F3.8°C 30.9°F-0.6°C 73% 6.9 mph ESE11.1 kmh ESE 11.5 mph18.5 kmh 30.10 in1019.3 mb - 0.00 in0.0 mm 0.00 in0.0 mm
06:05 PM 38.8°F3.8°C 30.9°F-0.6°C 73% 9.2 mph E14.8 kmh E 11.5 mph18.5 kmh 30.10 in1019.3 mb - 0.00 in0.0 mm 0.00 in0.0 mm
06:10 PM 38.8°F3.8°C 30.9°F-0.6°C 73% 9.2 mph ESE14.8 kmh ESE 11.5 mph18.5 kmh 30.10 in1019.3 mb - 0.00 in0.0 mm 0.00 in0.0 mm
06:15 PM 38.8°F3.8°C 30.9°F-0.6°C 73% 10.4 mph E16.7 kmh E 13.8 mph22.2 kmh 30.10 in1019.3 mb - 0.00 in0.0 mm 0.00 in0.0 mm
06:20 PM 38.9°F3.8°C 31.0°F-0.6°C 73% 8.1 mph ESE13.0 kmh ESE 11.5 mph18.5 kmh 30.11 in1019.6 mb - 0.00 in0.0 mm 0.00 in0.0 mm
06:25 PM 38.8°F3.8°C 30.9°F-0.6°C 73% 6.9 mph ESE11.1 kmh ESE 11.5 mph18.5 kmh 30.11 in1019.6 mb - 0.00 in0.0 mm 0.00 in0.0 mm
06:30 PM 38.7°F3.7°C 30.8°F-0.7°C 73% 9.2 mph ESE14.8 kmh ESE 11.5 mph18.5 kmh 30.11 in1019.6 mb - 0.00 in0.0 mm 0.00 in0.0 mm
06:35 PM 38.7°F3.7°C 30.8°F-0.7°C 73% 9.2 mph E14.8 kmh E 11.5 mph18.5 kmh 30.10 in1019.3 mb - 0.00 in0.0 mm 0.00 in0.0 mm
06:40 PM 38.6°F3.7°C 30.7°F-0.7°C 73% 8.1 mph ESE13.0 kmh ESE 11.5 mph18.5 kmh 30.10 in1019.3 mb - 0.00 in0.0 mm 0.00 in0.0 mm
06:45 PM 38.7°F3.7°C 30.8°F-0.7°C 73% 9.2 mph ESE14.8 kmh ESE 12.7 mph20.4 kmh 30.11 in1019.6 mb - 0.00 in0.0 mm 0.00 in0.0 mm
06:50 PM 38.9°F3.8°C 30.9°F-0.6°C 73% 9.2 mph E14.8 kmh E 11.5 mph18.5 kmh 30.11 in1019.6 mb - 0.00 in0.0 mm 0.00 in0.0 mm
06:55 PM 38.9°F3.8°C 31.0°F-0.6°C 73% 6.9 mph E11.1 kmh E 9.2 mph14.8 kmh 30.11 in1019.6 mb - 0.00 in0.0 mm 0.00 in0.0 mm
07:00 PM 38.8°F3.8°C 30.9°F-0.6°C 73% 6.9 mph ESE11.1 kmh ESE 9.2 mph14.8 kmh 30.11 in1019.6 mb - 0.00 in0.0 mm 0.00 in0.0 mm
07:05 PM 38.8°F3.8°C 30.9°F-0.6°C 73% 8.1 mph E13.0 kmh E 12.7 mph20.4 kmh 30.11 in1019.6 mb - 0.00 in0.0 mm 0.00 in0.0 mm
07:10 PM 38.9°F3.8°C 31.0°F-0.6°C 73% 9.2 mph E14.8 kmh E 13.8 mph22.2 kmh 30.11 in1019.6 mb - 0.00 in0.0 mm 0.00 in0.0 mm
07:15 PM 39.1°F3.9°C 31.2°F-0.4°C 73% 9.2 mph E14.8 kmh E 15.0 mph24.1 kmh 30.11 in1019.6 mb - 0.00 in0.0 mm 0.00 in0.0 mm
07:20 PM 39.2°F4.0°C 30.9°F-0.6°C 72% 8.1 mph E13.0 kmh E 12.7 mph20.4 kmh 30.12 in1020.0 mb - 0.00 in0.0 mm 0.00 in0.0 mm
07:25 PM 39.2°F4.0°C 30.9°F-0.6°C 72% 6.9 mph E11.1 kmh E 11.5 mph18.5 kmh 30.12 in1020.0 mb - 0.00 in0.0 mm 0.00 in0.0 mm
07:30 PM 39.1°F3.9°C 30.8°F-0.7°C 72% 9.2 mph ESE14.8 kmh ESE 13.8 mph22.2 kmh 30.11 in1019.6 mb - 0.00 in0.0 mm 0.00 in0.0 mm
07:35 PM 38.9°F3.8°C 31.0°F-0.6°C 73% 9.2 mph E14.8 kmh E 11.5 mph18.5 kmh 30.12 in1020.0 mb - 0.00 in0.0 mm 0.00 in0.0 mm
07:40 PM 38.7°F3.7°C 30.8°F-0.7°C 73% 8.1 mph E13.0 kmh E 11.5 mph18.5 kmh 30.12 in1020.0 mb - 0.00 in0.0 mm 0.00 in0.0 mm
07:45 PM 38.6°F3.7°C 31.0°F-0.6°C 74% 11.5 mph E18.5 kmh E 13.8 mph22.2 kmh 30.12 in1020.0 mb - 0.00 in0.0 mm 0.00 in0.0 mm
07:50 PM 38.7°F3.7°C 31.1°F-0.5°C 74% 9.2 mph ESE14.8 kmh ESE 11.5 mph18.5 kmh 30.12 in1020.0 mb - 0.00 in0.0 mm 0.00 in0.0 mm
07:55 PM 38.8°F3.8°C 30.9°F-0.6°C 73% 9.2 mph ESE14.8 kmh ESE 11.5 mph18.5 kmh 30.13 in1020.3 mb - 0.00 in0.0 mm 0.00 in0.0 mm
08:00 PM 38.8°F3.8°C 30.9°F-0.6°C 73% 9.2 mph E14.8 kmh E 16.1 mph25.9 kmh 30.12 in1020.0 mb - 0.00 in0.0 mm 0.00 in0.0 mm
08:05 PM 38.8°F3.8°C 30.9°F-0.6°C 73% 10.4 mph E16.7 kmh E 15.0 mph24.1 kmh 30.13 in1020.3 mb - 0.00 in0.0 mm 0.00 in0.0 mm
08:10 PM 38.8°F3.8°C 30.9°F-0.6°C 73% 9.2 mph ESE14.8 kmh ESE 12.7 mph20.4 kmh 30.13 in1020.3 mb - 0.00 in0.0 mm 0.00 in0.0 mm
08:15 PM 38.7°F3.7°C 31.1°F-0.5°C 74% 9.2 mph ESE14.8 kmh ESE 12.7 mph20.4 kmh 30.12 in1020.0 mb - 0.00 in0.0 mm 0.00 in0.0 mm
08:20 PM 38.6°F3.7°C 31.0°F-0.6°C 74% 9.2 mph E14.8 kmh E 12.7 mph20.4 kmh 30.12 in1020.0 mb - 0.00 in0.0 mm 0.00 in0.0 mm
08:25 PM 38.4°F3.6°C 30.8°F-0.7°C 74% 8.1 mph E13.0 kmh E 11.5 mph18.5 kmh 30.13 in1020.3 mb - 0.00 in0.0 mm 0.00 in0.0 mm
08:30 PM 38.2°F3.4°C 30.6°F-0.8°C 74% 5.8 mph E9.3 kmh E 9.2 mph14.8 kmh 30.13 in1020.3 mb - 0.00 in0.0 mm 0.00 in0.0 mm
08:35 PM 38.0°F3.3°C 30.8°F-0.7°C 75% 6.9 mph E11.1 kmh E 9.2 mph14.8 kmh 30.13 in1020.3 mb - 0.00 in0.0 mm 0.00 in0.0 mm
08:40 PM 38.1°F3.4°C 30.9°F-0.6°C 75% 4.6 mph E7.4 kmh E 8.1 mph13.0 kmh 30.13 in1020.3 mb - 0.00 in0.0 mm 0.00 in0.0 mm
08:45 PM 38.2°F3.4°C 31.0°F-0.6°C 75% 8.1 mph E13.0 kmh E 11.5 mph18.5 kmh 30.14 in1020.7 mb - 0.00 in0.0 mm 0.00 in0.0 mm
08:50 PM 38.3°F3.5°C 30.7°F-0.7°C 74% 6.9 mph E11.1 kmh E 9.2 mph14.8 kmh 30.14 in1020.7 mb - 0.00 in0.0 mm 0.00 in0.0 mm
08:55 PM 38.4°F3.6°C 30.8°F-0.7°C 74% 6.9 mph E11.1 kmh E 8.1 mph13.0 kmh 30.14 in1020.7 mb - 0.00 in0.0 mm 0.00 in0.0 mm
09:00 PM 38.4°F3.6°C 30.8°F-0.7°C 74% 4.6 mph E7.4 kmh E 4.6 mph7.4 kmh 30.14 in1020.7 mb - 0.00 in0.0 mm 0.00 in0.0 mm
09:05 PM 38.3°F3.5°C 30.7°F-0.7°C 74% 4.6 mph E7.4 kmh E 4.6 mph7.4 kmh 30.14 in1020.7 mb - 0.00 in0.0 mm 0.00 in0.0 mm
09:10 PM 38.2°F3.4°C 30.6°F-0.8°C 74% 4.6 mph E7.4 kmh E 6.9 mph11.1 kmh 30.15 in1021.0 mb - 0.00 in0.0 mm 0.00 in0.0 mm
09:30 PM 38.4°F3.6°C 30.8°F-0.7°C 74% 4.6 mph E7.4 kmh E 5.8 mph9.3 kmh 30.15 in1021.0 mb - 0.00 in0.0 mm 0.00 in0.0 mm
09:35 PM 38.3°F3.5°C 30.7°F-0.7°C 74% 8.1 mph E13.0 kmh E 9.2 mph14.8 kmh 30.15 in1021.0 mb - 0.00 in0.0 mm 0.00 in0.0 mm
09:40 PM 38.3°F3.5°C 30.7°F-0.7°C 74% 5.8 mph E9.3 kmh E 10.4 mph16.7 kmh 30.15 in1021.0 mb - 0.00 in0.0 mm 0.00 in0.0 mm
09:45 PM 38.3°F3.5°C 31.1°F-0.5°C 75% 6.9 mph E11.1 kmh E 8.1 mph13.0 kmh 30.15 in1021.0 mb - 0.00 in0.0 mm 0.00 in0.0 mm
09:50 PM 38.3°F3.5°C 31.1°F-0.5°C 75% 8.1 mph ESE13.0 kmh ESE 12.7 mph20.4 kmh 30.15 in1021.0 mb - 0.00 in0.0 mm 0.00 in0.0 mm
09:55 PM 38.3°F3.5°C 31.0°F-0.6°C 75% 5.8 mph E9.3 kmh E 10.4 mph16.7 kmh 30.15 in1021.0 mb - 0.00 in0.0 mm 0.00 in0.0 mm
10:00 PM 38.2°F3.4°C 31.0°F-0.6°C 75% 5.8 mph E9.3 kmh E 6.9 mph11.1 kmh 30.16 in1021.3 mb - 0.00 in0.0 mm 0.00 in0.0 mm
10:05 PM 38.1°F3.4°C 30.8°F-0.7°C 75% 6.9 mph ESE11.1 kmh ESE 8.1 mph13.0 kmh 30.15 in1021.0 mb - 0.00 in0.0 mm 0.00 in0.0 mm
10:10 PM 37.8°F3.2°C 30.6°F-0.8°C 75% 4.6 mph SE7.4 kmh SE 8.1 mph13.0 kmh 30.15 in1021.0 mb - 0.00 in0.0 mm 0.00 in0.0 mm
10:15 PM 37.6°F3.1°C 30.7°F-0.7°C 76% 6.9 mph ESE11.1 kmh ESE 10.4 mph16.7 kmh 30.15 in1021.0 mb - 0.00 in0.0 mm 0.00 in0.0 mm
10:20 PM 37.8°F3.2°C 30.6°F-0.8°C 75% 5.8 mph SE9.3 kmh SE 6.9 mph11.1 kmh 30.15 in1021.0 mb - 0.00 in0.0 mm 0.00 in0.0 mm
10:25 PM 37.7°F3.2°C 30.4°F-0.9°C 75% 5.8 mph ESE9.3 kmh ESE 6.9 mph11.1 kmh 30.15 in1021.0 mb - 0.00 in0.0 mm 0.00 in0.0 mm
10:30 PM 37.6°F3.1°C 30.7°F-0.7°C 76% 6.9 mph E11.1 kmh E 10.4 mph16.7 kmh 30.15 in1021.0 mb - 0.00 in0.0 mm 0.00 in0.0 mm
10:35 PM 37.6°F3.1°C 30.7°F-0.7°C 76% 5.8 mph E9.3 kmh E 6.9 mph11.1 kmh 30.15 in1021.0 mb - 0.00 in0.0 mm 0.00 in0.0 mm
10:40 PM 37.5°F3.1°C 30.6°F-0.8°C 76% 4.6 mph ESE7.4 kmh ESE 6.9 mph11.1 kmh 30.15 in1021.0 mb - 0.00 in0.0 mm 0.00 in0.0 mm
10:45 PM 37.3°F2.9°C 30.4°F-0.9°C 76% 5.8 mph SE9.3 kmh SE 10.4 mph16.7 kmh 30.15 in1021.0 mb - 0.00 in0.0 mm 0.00 in0.0 mm
10:50 PM 37.1°F2.8°C 30.2°F-1.0°C 76% 6.9 mph ESE11.1 kmh ESE 9.2 mph14.8 kmh 30.15 in1021.0 mb - 0.00 in0.0 mm 0.00 in0.0 mm
10:55 PM 37.1°F2.8°C 30.6°F-0.8°C 77% 6.9 mph E11.1 kmh E 9.2 mph14.8 kmh 30.15 in1021.0 mb - 0.00 in0.0 mm 0.00 in0.0 mm
11:00 PM 37.2°F2.9°C 30.4°F-0.9°C 76% 4.6 mph E7.4 kmh E 6.9 mph11.1 kmh 30.15 in1021.0 mb - 0.00 in0.0 mm 0.00 in0.0 mm
11:05 PM 37.1°F2.8°C 30.2°F-1.0°C 76% 8.1 mph E13.0 kmh E 11.5 mph18.5 kmh 30.14 in1020.7 mb - 0.00 in0.0 mm 0.00 in0.0 mm
11:10 PM 37.3°F2.9°C 30.5°F-0.8°C 76% 9.2 mph E14.8 kmh E 11.5 mph18.5 kmh 30.15 in1021.0 mb - 0.00 in0.0 mm 0.00 in0.0 mm
11:15 PM 37.5°F3.1°C 30.3°F-0.9°C 75% 6.9 mph E11.1 kmh E 9.2 mph14.8 kmh 30.15 in1021.0 mb - 0.00 in0.0 mm 0.00 in0.0 mm
11:20 PM 37.5°F3.1°C 30.3°F-0.9°C 75% 6.9 mph SE11.1 kmh SE 8.1 mph13.0 kmh 30.15 in1021.0 mb - 0.00 in0.0 mm 0.00 in0.0 mm
11:25 PM 37.2°F2.9°C 30.4°F-0.9°C 76% 3.5 mph ESE5.6 kmh ESE 3.5 mph5.6 kmh 30.15 in1021.0 mb - 0.00 in0.0 mm 0.00 in0.0 mm
11:30 PM 36.8°F2.7°C 30.0°F-1.1°C 76% 2.3 mph SE3.7 kmh SE 3.5 mph5.6 kmh 30.15 in1021.0 mb - 0.00 in0.0 mm 0.00 in0.0 mm
11:35 PM 36.4°F2.4°C 29.8°F-1.2°C 77% 5.8 mph E9.3 kmh E 6.9 mph11.1 kmh 30.14 in1020.7 mb - 0.00 in0.0 mm 0.00 in0.0 mm
11:40 PM 36.3°F2.4°C 29.8°F-1.2°C 77% 4.6 mph E7.4 kmh E 6.9 mph11.1 kmh 30.15 in1021.0 mb - 0.00 in0.0 mm 0.00 in0.0 mm
11:45 PM 36.4°F2.4°C 29.9°F-1.2°C 77% 4.6 mph E7.4 kmh E 8.1 mph13.0 kmh 30.15 in1021.0 mb - 0.00 in0.0 mm 0.00 in0.0 mm
11:50 PM 36.5°F2.5°C 30.0°F-1.1°C 77% 5.8 mph E9.3 kmh E 9.2 mph14.8 kmh 30.15 in1021.0 mb - 0.00 in0.0 mm 0.00 in0.0 mm
11:55 PM 36.8°F2.7°C 30.3°F-0.9°C 77% 6.9 mph E11.1 kmh E 10.4 mph16.7 kmh 30.15 in1021.0 mb - 0.00 in0.0 mm 0.00 in0.0 mm